Time;durP1;ratioP1;P1;durP2;ratioP2;P2;SDS_P1;SDS_P2;PMS_P1;PMS_P2;Temp;Humidity;BMP_temperature;BMP_pressure;BME280_temperature;BME280_humidity;BME280_pressure;Samples;Min_cycle;Max_cycle;Signal;HPM_P1;HPM_P2
2023/08/13 00:00:52;;;;;;;12.90;7.45;;;512.60;2380.80;;;;;;5033679;28;20022;-71
2023/08/13 00:03:18;;;;;;;13.27;6.00;;;512.70;2380.80;;;;;;5033276;28;20379;-73
2023/08/13 00:05:46;;;;;;;13.52;7.03;;;512.40;2380.80;;;;;;5033364;28;20111;-74
2023/08/13 00:08:12;;;;;;;11.88;7.70;;;512.30;2380.80;;;;;;5033430;28;20026;-76
2023/08/13 00:10:38;;;;;;;12.63;7.00;;;512.30;2380.80;;;;;;5033310;28;20460;-71
2023/08/13 00:13:04;;;;;;;14.07;7.93;;;512.20;2380.80;;;;;;5033270;28;20034;-72
2023/08/13 00:15:29;;;;;;;13.10;7.35;;;512.10;2380.80;;;;;;5033178;28;20104;-71
2023/08/13 00:17:55;;;;;;;11.57;7.03;;;512.00;2380.80;;;;;;5033339;28;20071;-72
2023/08/13 00:20:21;;;;;;;10.63;6.70;;;487.30;2380.80;;;;;;5033331;28;20026;-72
2023/08/13 00:22:47;;;;;;;13.73;6.80;;;487.30;2380.80;;;;;;5033142;28;20025;-71
2023/08/13 00:25:13;;;;;;;11.18;5.80;;;487.30;2380.80;;;;;;5033008;28;20044;-75
2023/08/13 00:27:38;;;;;;;9.98;5.95;;;512.00;2380.80;;;;;;5032943;28;20057;-73
2023/08/13 00:30:06;;;;;;;9.57;6.05;;;512.00;2380.80;;;;;;5033224;28;20037;-70
2023/08/13 00:32:31;;;;;;;9.38;6.38;;;512.10;2380.80;;;;;;5032906;28;20077;-71
2023/08/13 00:34:57;;;;;;;10.98;6.32;;;512.00;2380.80;;;;;;5033115;28;20045;-72
2023/08/13 00:37:22;;;;;;;15.50;8.00;;;512.00;2380.80;;;;;;5033072;28;20057;-71
2023/08/13 00:39:48;;;;;;;8.73;6.05;;;487.30;2380.80;;;;;;5032971;28;20026;-71
2023/08/13 00:42:14;;;;;;;16.60;6.90;;;487.30;2380.80;;;;;;5033126;28;20493;-72
2023/08/13 00:44:39;;;;;;;16.75;7.68;;;487.30;2380.80;;;;;;5032996;28;20040;-71
2023/08/13 00:47:05;;;;;;;8.07;5.90;;;487.30;2380.80;;;;;;5033003;28;20107;-72
2023/08/13 00:49:31;;;;;;;9.07;6.68;;;487.30;2380.80;;;;;;5033022;28;20033;-75
2023/08/13 00:51:57;;;;;;;10.15;6.05;;;512.00;2380.80;;;;;;5033345;28;20026;-72
2023/08/13 00:54:23;;;;;;;9.45;5.95;;;512.30;2380.80;;;;;;5032893;28;20031;-74
2023/08/13 00:56:52;;;;;;;12.60;7.05;;;512.40;2380.80;;;;;;5035719;28;20116;-71
2023/08/13 00:59:19;;;;;;;9.20;6.15;;;512.50;2380.80;;;;;;5036813;28;20026;-71
2023/08/13 01:01:45;;;;;;;7.57;6.07;;;512.60;2380.80;;;;;;5036680;28;20502;-72
2023/08/13 01:04:10;;;;;;;15.07;6.97;;;512.70;2380.80;;;;;;5036735;28;20037;-71
2023/08/13 01:07:01;;;;;;;9.55;5.55;;;512.70;2380.80;;;;;;5036742;28;20467;-72
2023/08/13 01:09:48;;;;;;;11.00;6.22;;;512.60;2380.80;;;;;;5036665;28;20535;-72
2023/08/13 01:12:34;;;;;;;9.40;6.35;;;512.40;2380.80;;;;;;5036099;28;20036;-71
2023/08/13 01:15:17;;;;;;;8.85;6.40;;;512.20;2380.80;;;;;;5035539;28;20063;-71
2023/08/13 01:17:44;;;;;;;11.20;6.70;;;512.30;2380.80;;;;;;5035123;28;20513;-75
2023/08/13 01:20:12;;;;;;;10.85;6.65;;;512.30;2380.80;;;;;;5034726;28;20052;-71
2023/08/13 01:22:48;;;;;;;11.32;7.13;;;512.30;2380.80;;;;;;5035283;28;20044;-72
2023/08/13 01:25:14;;;;;;;10.63;8.10;;;512.40;2380.80;;;;;;5033385;28;20490;-74
2023/08/13 01:27:53;;;;;;;14.77;7.60;;;512.40;2380.80;;;;;;5035082;28;20026;-72
2023/08/13 01:30:26;;;;;;;10.85;6.60;;;512.50;2380.80;;;;;;5035012;28;20064;-72
2023/08/13 01:33:13;;;;;;;9.70;6.10;;;512.60;2380.80;;;;;;5032779;28;20029;-71
2023/08/13 01:35:42;;;;;;;8.70;6.13;;;512.70;2380.80;;;;;;5033931;28;20549;-74
2023/08/13 01:38:08;;;;;;;11.05;6.70;;;512.30;2380.80;;;;;;5032730;28;20017;-70
2023/08/13 01:40:34;;;;;;;13.50;7.03;;;487.30;2380.80;;;;;;5034982;28;20061;-70
2023/08/13 01:42:59;;;;;;;10.63;7.47;;;512.00;2380.80;;;;;;5034786;28;20099;-71
2023/08/13 01:45:25;;;;;;;10.70;6.57;;;512.10;2380.80;;;;;;5034605;28;20029;-71
2023/08/13 01:47:51;;;;;;;10.57;7.25;;;512.20;2380.80;;;;;;5034991;28;20028;-72
2023/08/13 01:50:17;;;;;;;10.40;7.07;;;512.00;2380.80;;;;;;5034869;28;20026;-71
2023/08/13 01:52:42;;;;;;;11.30;6.68;;;512.00;2380.80;;;;;;5035271;28;20034;-71
2023/08/13 01:55:08;;;;;;;14.80;6.90;;;512.20;2380.80;;;;;;5034625;28;20060;-70
2023/08/13 01:57:34;;;;;;;14.15;7.13;;;512.40;2380.80;;;;;;5034500;28;20357;-72
2023/08/13 02:00:00;;;;;;;8.73;6.70;;;512.50;2380.80;;;;;;5034819;28;20075;-71
2023/08/13 02:02:25;;;;;;;17.48;7.28;;;512.30;2380.80;;;;;;5034387;28;20062;-71
2023/08/13 02:04:51;;;;;;;11.50;7.22;;;512.00;2380.80;;;;;;5034964;28;20124;-71
2023/08/13 02:07:17;;;;;;;11.30;7.18;;;512.00;2380.80;;;;;;5033727;28;20021;-72
2023/08/13 02:09:42;;;;;;;13.45;7.53;;;512.00;2380.80;;;;;;5034864;28;20569;-71
2023/08/13 02:12:08;;;;;;;11.82;7.78;;;512.00;2380.80;;;;;;5034329;28;20032;-71
2023/08/13 02:14:34;;;;;;;9.95;6.88;;;512.00;2380.80;;;;;;5034381;28;20013;-70
2023/08/13 02:17:00;;;;;;;13.85;8.55;;;487.20;2380.80;;;;;;5033342;28;20060;-71
2023/08/13 02:19:25;;;;;;;11.52;6.97;;;487.10;2380.80;;;;;;5034124;28;20029;-71
2023/08/13 02:21:51;;;;;;;12.35;6.90;;;487.10;2380.80;;;;;;5034223;28;20484;-75
2023/08/13 02:24:17;;;;;;;11.73;7.18;;;487.10;2380.80;;;;;;5033711;28;20042;-72
2023/08/13 02:26:43;;;;;;;10.77;6.72;;;487.20;2380.80;;;;;;5034079;28;20033;-72
2023/08/13 02:29:09;;;;;;;11.68;7.32;;;487.30;2380.80;;;;;;5033115;28;20026;-74
2023/08/13 02:31:34;;;;;;;13.50;7.50;;;487.30;2380.80;;;;;;5033300;28;20028;-71
2023/08/13 02:34:00;;;;;;;9.40;6.90;;;487.30;2380.80;;;;;;5033168;28;20519;-72
2023/08/13 02:36:26;;;;;;;12.90;7.75;;;487.20;2380.80;;;;;;5033876;28;20021;-71
2023/08/13 02:38:51;;;;;;;10.45;6.68;;;487.10;2380.80;;;;;;5030683;28;20502;-71
2023/08/13 02:41:17;;;;;;;11.27;7.20;;;487.30;2380.80;;;;;;5033248;28;20025;-71
2023/08/13 02:43:56;;;;;;;11.48;8.05;;;512.00;2380.80;;;;;;5033198;28;20091;-71
2023/08/13 02:46:25;;;;;;;11.15;7.38;;;487.30;2380.80;;;;;;5032244;28;20479;-72
2023/08/13 02:48:55;;;;;;;14.85;7.47;;;487.30;2380.80;;;;;;5033050;28;20036;-72
2023/08/13 02:51:22;;;;;;;10.85;7.50;;;512.10;2380.80;;;;;;5033097;28;20024;-71
2023/08/13 02:53:47;;;;;;;13.88;7.68;;;512.10;2380.80;;;;;;5033601;28;20047;-78
2023/08/13 02:56:13;;;;;;;14.52;7.78;;;512.10;2380.80;;;;;;5030628;28;20537;-71
2023/08/13 02:58:39;;;;;;;12.20;7.22;;;512.20;2380.80;;;;;;5033396;28;20586;-71
2023/08/13 03:01:05;;;;;;;11.43;8.13;;;512.20;2380.80;;;;;;5033120;28;20013;-71
2023/08/13 03:03:31;;;;;;;13.15;8.10;;;487.30;2380.80;;;;;;5031639;28;20057;-70
2023/08/13 03:05:57;;;;;;;12.35;7.95;;;487.10;2380.80;;;;;;5032842;28;20013;-70
2023/08/13 03:08:23;;;;;;;14.23;7.40;;;486.70;2380.80;;;;;;5032155;28;20021;-70
2023/08/13 03:10:49;;;;;;;12.52;7.72;;;486.60;2380.80;;;;;;5032576;28;20052;-70
2023/08/13 03:13:14;;;;;;;11.00;7.80;;;486.40;2380.80;;;;;;5032542;28;20021;-70
2023/08/13 03:15:40;;;;;;;12.25;9.18;;;461.60;2380.80;;;;;;5032820;28;20030;-70
2023/08/13 03:18:07;;;;;;;13.35;9.60;;;461.50;2380.80;;;;;;5032635;28;20060;-72
2023/08/13 03:20:33;;;;;;;19.77;10.57;;;461.20;2380.80;;;;;;5032783;28;20109;-75
2023/08/13 03:22:59;;;;;;;12.82;9.65;;;460.90;2380.80;;;;;;5032881;28;20375;-71
2023/08/13 03:25:25;;;;;;;19.55;10.82;;;460.90;2380.80;;;;;;5032690;28;20033;-76
2023/08/13 03:27:51;;;;;;;23.80;11.23;;;460.80;2380.80;;;;;;5032159;28;20021;-71
2023/08/13 03:30:17;;;;;;;20.45;10.75;;;460.90;2380.80;;;;;;5032585;28;20098;-72
2023/08/13 03:32:42;;;;;;;18.52;9.77;;;461.20;2380.80;;;;;;5032056;28;20033;-72
2023/08/13 03:35:08;;;;;;;17.00;10.07;;;461.10;2380.80;;;;;;5032135;28;20030;-73
2023/08/13 03:37:34;;;;;;;17.83;8.98;;;461.00;2380.80;;;;;;5032010;28;20060;-71
2023/08/13 03:40:00;;;;;;;14.20;9.70;;;461.00;2380.80;;;;;;5032740;28;20052;-70
2023/08/13 03:42:26;;;;;;;16.98;10.00;;;461.20;2380.80;;;;;;5032109;28;20072;-71
2023/08/13 03:44:51;;;;;;;15.93;10.23;;;461.10;2380.80;;;;;;5031676;28;20041;-71
2023/08/13 03:47:17;;;;;;;15.95;10.73;;;461.20;2380.80;;;;;;5032663;28;20512;-70
2023/08/13 03:49:43;;;;;;;23.88;10.98;;;461.10;2380.80;;;;;;5032040;28;20487;-71
2023/08/13 03:52:11;;;;;;;16.45;9.45;;;461.10;2380.80;;;;;;5031311;28;20025;-72
2023/08/13 03:54:37;;;;;;;23.45;10.77;;;461.20;2380.80;;;;;;5029660;28;20027;-70
2023/08/13 03:57:03;;;;;;;14.43;9.52;;;461.20;2380.80;;;;;;5032023;28;20029;-71
2023/08/13 03:59:29;;;;;;;15.60;9.85;;;461.10;2380.80;;;;;;5031511;28;20383;-71
2023/08/13 04:01:57;;;;;;;14.30;10.45;;;461.10;2380.80;;;;;;5031013;28;20493;-73
2023/08/13 04:04:23;;;;;;;13.65;9.93;;;461.20;2380.80;;;;;;5032291;28;20379;-71
2023/08/13 04:06:48;;;;;;;13.90;10.98;;;461.20;2380.80;;;;;;5031859;28;20029;-72
2023/08/13 04:09:14;;;;;;;15.45;10.85;;;461.10;2380.80;;;;;;5031969;28;20037;-71
2023/08/13 04:11:40;;;;;;;21.55;10.98;;;460.90;2380.80;;;;;;5031377;28;20434;-69
2023/08/13 04:14:06;;;;;;;22.25;12.55;;;460.90;2380.80;;;;;;5031533;28;20021;-75
2023/08/13 04:16:31;;;;;;;16.52;11.57;;;460.90;2380.80;;;;;;5031888;28;20022;-72
2023/08/13 04:18:57;;;;;;;19.17;11.95;;;460.80;2380.80;;;;;;5031584;28;20025;-70
2023/08/13 04:21:25;;;;;;;15.23;10.88;;;436.10;2355.20;;;;;;5030147;28;20026;-72
2023/08/13 04:23:55;;;;;;;18.02;11.27;;;436.10;2355.20;;;;;;5031931;28;20081;-77
2023/08/13 04:26:22;;;;;;;20.67;11.55;;;436.10;2355.20;;;;;;5029132;28;20028;-70
2023/08/13 04:28:48;;;;;;;20.85;12.55;;;436.10;2355.20;;;;;;5031305;28;20471;-70
2023/08/13 04:31:15;;;;;;;16.63;12.48;;;436.10;2355.20;;;;;;5029851;28;20032;-70
2023/08/13 04:33:41;;;;;;;18.98;11.93;;;436.00;2355.20;;;;;;5028648;28;20087;-69
2023/08/13 04:36:06;;;;;;;17.65;11.95;;;436.10;2355.20;;;;;;5031772;28;20025;-75
2023/08/13 04:38:32;;;;;;;17.90;13.05;;;461.00;2380.80;;;;;;5031458;28;20021;-71
2023/08/13 04:40:58;;;;;;;16.40;11.80;;;461.10;2380.80;;;;;;5021709;28;20064;-70
2023/08/13 04:43:24;;;;;;;18.42;12.75;;;461.00;2380.80;;;;;;5019880;28;20541;-73
2023/08/13 04:45:49;;;;;;;18.67;13.93;;;461.00;2380.80;;;;;;5023887;28;20029;-70
2023/08/13 04:48:18;;;;;;;15.65;12.18;;;461.20;2380.80;;;;;;5019352;28;20364;-70
2023/08/13 04:50:43;;;;;;;19.77;12.68;;;461.40;2380.80;;;;;;5019983;28;20671;-72
2023/08/13 04:53:09;;;;;;;14.40;11.00;;;461.50;2380.80;;;;;;5017978;28;20116;-71
2023/08/13 04:55:35;;;;;;;19.60;11.80;;;461.50;2380.80;;;;;;5024940;28;20026;-70
2023/08/13 04:58:00;;;;;;;19.60;12.48;;;461.70;2380.80;;;;;;5019114;28;20161;-70
2023/08/13 05:00:26;;;;;;;22.30;11.70;;;486.50;2380.80;;;;;;5030407;28;20030;-71
2023/08/13 05:02:52;;;;;;;18.65;13.00;;;486.50;2380.80;;;;;;5023422;28;20029;-73
2023/08/13 05:05:17;;;;;;;22.75;12.25;;;486.70;2380.80;;;;;;5018274;28;20376;-70
2023/08/13 05:07:43;;;;;;;17.02;12.60;;;486.80;2380.80;;;;;;5025686;28;20027;-72
2023/08/13 05:10:09;;;;;;;18.02;11.57;;;486.90;2380.80;;;;;;5023005;28;20121;-70
2023/08/13 05:12:35;;;;;;;18.90;11.20;;;487.00;2380.80;;;;;;5021880;28;20022;-70
2023/08/13 05:15:00;;;;;;;23.75;10.88;;;487.20;2380.80;;;;;;5022749;28;20079;-70
2023/08/13 05:17:26;;;;;;;11.90;9.13;;;487.30;2380.80;;;;;;5016749;28;20060;-72
2023/08/13 05:19:52;;;;;;;16.45;10.40;;;487.30;2380.80;;;;;;5024965;28;20028;-70
2023/08/13 05:22:18;;;;;;;14.60;10.55;;;512.10;2380.80;;;;;;5026965;28;20029;-75
2023/08/13 05:24:43;;;;;;;15.15;9.23;;;512.30;2380.80;;;;;;5024050;28;20407;-69
2023/08/13 05:27:09;;;;;;;14.02;9.90;;;512.50;2380.80;;;;;;5019147;28;20033;-69
2023/08/13 05:29:35;;;;;;;12.98;10.27;;;512.70;2380.80;;;;;;5022076;28;20044;-70
2023/08/13 05:32:02;;;;;;;12.82;8.75;;;512.70;2380.80;;;;;;5022571;28;20032;-74
2023/08/13 05:34:27;;;;;;;13.52;9.30;;;537.60;2406.40;;;;;;5016955;28;20057;-68
2023/08/13 05:36:53;;;;;;;16.38;9.77;;;537.70;2406.40;;;;;;5024116;28;20095;-69
2023/08/13 05:39:19;;;;;;;18.55;9.88;;;537.80;2406.40;;;;;;5023106;28;20092;-69
2023/08/13 05:41:45;;;;;;;12.93;10.20;;;537.90;2406.40;;;;;;5017563;28;20073;-70
2023/08/13 05:44:11;;;;;;;13.27;10.45;;;538.00;2406.40;;;;;;5018526;28;20040;-70
2023/08/13 05:46:37;;;;;;;12.35;9.35;;;538.20;2406.40;;;;;;5023322;28;20021;-70
2023/08/13 05:49:03;;;;;;;16.52;10.30;;;538.30;2406.40;;;;;;5023919;28;20040;-70
2023/08/13 05:51:29;;;;;;;12.77;8.70;;;538.40;2406.40;;;;;;5022494;28;20100;-72
2023/08/13 05:53:54;;;;;;;16.02;8.82;;;538.50;2406.40;;;;;;5026854;28;20069;-71
2023/08/13 05:56:20;;;;;;;15.93;9.57;;;563.20;2432.00;;;;;;5033076;28;20032;-70
2023/08/13 05:58:45;;;;;;;17.05;8.25;;;563.30;2432.00;;;;;;5026034;28;20025;-71
2023/08/13 06:01:11;;;;;;;11.52;8.50;;;563.50;2432.00;;;;;;5022141;28;20053;-71
2023/08/13 06:03:37;;;;;;;12.68;7.68;;;563.60;2432.00;;;;;;5024408;28;20107;-71
2023/08/13 06:06:03;;;;;;;10.93;6.65;;;563.70;2432.00;;;;;;5025419;28;20030;-75
2023/08/13 06:08:28;;;;;;;10.65;7.15;;;563.90;2432.00;;;;;;5023190;28;20531;-74
2023/08/13 06:10:54;;;;;;;12.38;7.00;;;564.00;2432.00;;;;;;5027093;28;20475;-71
2023/08/13 06:13:20;;;;;;;12.40;6.50;;;564.10;2432.00;;;;;;5022653;28;20471;-71
2023/08/13 06:15:45;;;;;;;8.75;5.50;;;588.80;2432.00;;;;;;5035067;28;20032;-71
2023/08/13 06:18:11;;;;;;;12.07;6.32;;;588.80;2432.00;;;;;;5025200;28;20029;-69
2023/08/13 06:20:37;;;;;;;8.18;5.65;;;589.00;2432.00;;;;;;5017778;28;20030;-72
2023/08/13 06:23:03;;;;;;;10.88;5.97;;;589.10;2432.00;;;;;;5027834;28;20100;-70
2023/08/13 06:25:29;;;;;;;8.52;5.38;;;589.30;2432.00;;;;;;5026300;28;20029;-70
2023/08/13 06:27:54;;;;;;;11.52;5.75;;;589.40;2432.00;;;;;;5023575;28;20133;-70
2023/08/13 06:30:20;;;;;;;6.90;4.45;;;589.50;2432.00;;;;;;5027677;28;20479;-76
2023/08/13 06:32:46;;;;;;;7.95;5.75;;;589.60;2432.00;;;;;;5021844;28;20048;-70
2023/08/13 06:35:12;;;;;;;9.85;5.13;;;589.70;2432.00;;;;;;5024644;28;20041;-71
2023/08/13 06:37:38;;;;;;;7.75;4.85;;;614.40;2355.20;;;;;;5027968;28;20399;-70
2023/08/13 06:40:04;;;;;;;8.57;4.45;;;614.50;2329.60;;;;;;5032615;28;20038;-73
2023/08/13 06:42:29;;;;;;;9.35;4.70;;;614.60;2176.00;;;;;;5016260;28;20036;-71
2023/08/13 06:44:55;;;;;;;11.93;4.68;;;614.70;2124.80;;;;;;5017692;28;20034;-73
2023/08/13 06:47:21;;;;;;;8.73;4.82;;;614.80;2099.20;;;;;;5026236;28;20095;-73
2023/08/13 06:49:46;;;;;;;8.10;5.15;;;615.10;2150.40;;;;;;5020544;28;20029;-72
2023/08/13 06:52:12;;;;;;;8.35;5.00;;;615.20;2073.60;;;;;;5021168;28;20026;-72
2023/08/13 06:54:38;;;;;;;6.57;4.03;;;615.30;2048.00;;;;;;5026032;28;20029;-72
2023/08/13 06:57:04;;;;;;;6.63;4.13;;;615.30;1996.80;;;;;;5023884;28;20090;-72
2023/08/13 06:59:29;;;;;;;7.63;4.63;;;640.10;1945.60;;;;;;5021676;28;20495;-71
2023/08/13 07:01:55;;;;;;;8.65;4.50;;;640.20;1945.60;;;;;;5023501;28;20030;-74
2023/08/13 07:04:21;;;;;;;10.18;5.00;;;640.40;1920.00;;;;;;5023951;28;20042;-71
2023/08/13 07:06:46;;;;;;;9.98;4.43;;;640.30;1920.00;;;;;;5023875;28;20026;-71
2023/08/13 07:09:12;;;;;;;8.13;4.30;;;640.60;1843.20;;;;;;5025994;28;20112;-73
2023/08/13 07:11:38;;;;;;;6.30;4.32;;;640.60;1868.80;;;;;;5021774;28;20467;-71
2023/08/13 07:14:04;;;;;;;7.68;4.20;;;665.60;1894.40;;;;;;5023220;28;20044;-72
2023/08/13 07:16:30;;;;;;;5.72;3.75;;;665.80;1817.60;;;;;;5023694;28;20029;-72
2023/08/13 07:18:56;;;;;;;6.03;3.80;;;665.70;1843.20;;;;;;5025678;28;20029;-73
2023/08/13 07:21:21;;;;;;;12.65;5.72;;;666.10;1766.40;;;;;;5019549;28;20072;-71
2023/08/13 07:23:48;;;;;;;9.25;4.18;;;666.20;1715.20;;;;;;5028311;28;20026;-72
2023/08/13 07:26:14;;;;;;;7.15;4.28;;;666.30;1792.00;;;;;;5026218;28;20484;-71
2023/08/13 07:28:40;;;;;;;8.45;3.55;;;666.50;1715.20;;;;;;5021139;28;20036;-71
2023/08/13 07:31:06;;;;;;;5.57;4.30;;;691.30;1740.80;;;;;;5018455;28;20037;-72
2023/08/13 07:33:32;;;;;;;5.82;3.67;;;691.40;1689.60;;;;;;5021258;28;20050;-72
2023/08/13 07:36:02;;;;;;;27.35;18.83;;;691.60;1561.60;;;;;;5022590;28;20029;-72
2023/08/13 07:38:28;;;;;;;6.05;4.47;;;691.70;1536.00;;;;;;5022631;28;20026;-72
2023/08/13 07:40:56;;;;;;;6.20;4.85;;;691.90;1612.80;;;;;;5030031;28;20033;-71
2023/08/13 07:43:23;;;;;;;55.63;44.95;;;716.80;1612.80;;;;;;5020517;28;20047;-71
2023/08/13 07:45:48;;;;;;;7.38;4.97;;;717.10;1484.80;;;;;;5025146;28;20068;-71
2023/08/13 07:48:14;;;;;;;8.25;3.50;;;716.90;1561.60;;;;;;5022944;28;20061;-73
2023/08/13 07:50:40;;;;;;;89.07;77.60;;;717.20;1433.60;;;;;;5023899;28;20056;-70
2023/08/13 07:53:06;;;;;;;8.13;5.93;;;717.40;1433.60;;;;;;5016869;28;20018;-70
2023/08/13 07:55:31;;;;;;;7.20;3.67;;;717.50;1510.40;;;;;;5022811;28;20030;-73
2023/08/13 07:57:57;;;;;;;7.97;4.20;;;717.50;1484.80;;;;;;5022052;28;20037;-71
2023/08/13 08:00:23;;;;;;;10.43;3.67;;;742.40;1510.40;;;;;;5020989;28;20026;-71
2023/08/13 08:02:48;;;;;;;7.63;3.75;;;742.50;1433.60;;;;;;5023260;28;20035;-71
2023/08/13 08:05:16;;;;;;;7.93;3.88;;;717.60;1484.80;;;;;;5026595;28;20402;-72
2023/08/13 08:07:42;;;;;;;18.73;7.72;;;742.70;1459.20;;;;;;5024274;28;20040;-72
2023/08/13 08:10:08;;;;;;;10.13;3.38;;;742.90;1408.00;;;;;;5020370;28;20036;-73
2023/08/13 08:12:34;;;;;;;5.53;4.22;;;742.90;1433.60;;;;;;5020463;28;20026;-71
2023/08/13 08:14:59;;;;;;;6.57;3.55;;;743.00;1459.20;;;;;;5024098;28;20107;-73
2023/08/13 08:17:25;;;;;;;12.10;8.38;;;743.00;1408.00;;;;;;5016044;28;20076;-72
2023/08/13 08:19:51;;;;;;;93.22;51.10;;;768.00;1331.20;;;;;;5026134;28;20057;-71
2023/08/13 08:22:17;;;;;;;45.95;24.13;;;768.40;1280.00;;;;;;5023189;28;20049;-72
2023/08/13 08:24:42;;;;;;;21.15;12.63;;;768.10;1280.00;;;;;;5019544;28;20045;-71
2023/08/13 08:27:09;;;;;;;196.48;109.03;;;768.10;1356.80;;;;;;5023883;28;20026;-70
2023/08/13 08:29:35;;;;;;;37.63;23.17;;;768.40;1305.60;;;;;;5029482;28;20036;-75
2023/08/13 08:32:00;;;;;;;7.03;3.83;;;768.70;1305.60;;;;;;5021828;28;20021;-74
2023/08/13 08:34:26;;;;;;;5.38;3.22;;;768.90;1254.40;;;;;;5014544;28;20073;-70
2023/08/13 08:36:53;;;;;;;8.80;3.67;;;768.60;1305.60;;;;;;5018746;28;20053;-71
2023/08/13 08:39:19;;;;;;;5.82;3.53;;;768.90;1280.00;;;;;;5024554;28;20026;-74
2023/08/13 08:41:46;;;;;;;11.75;7.35;;;793.70;1280.00;;;;;;5022214;28;20029;-72
2023/08/13 08:44:20;;;;;;;260.40;197.95;;;793.90;1280.00;;;;;;5018146;28;20116;-71
2023/08/13 08:46:52;;;;;;;45.75;31.38;;;794.00;1228.80;;;;;;5023762;28;20026;-72
2023/08/13 08:49:21;;;;;;;1204.38;738.78;;;794.10;1228.80;;;;;;5016755;28;20029;-73
2023/08/13 08:51:47;;;;;;;39.88;25.52;;;794.20;1254.40;;;;;;5021517;28;20475;-72
2023/08/13 08:54:14;;;;;;;7.90;4.07;;;794.50;1280.00;;;;;;5018465;28;20026;-75
2023/08/13 08:56:40;;;;;;;8.93;6.25;;;794.50;1203.20;;;;;;5022091;28;20108;-72
2023/08/13 08:59:06;;;;;;;8.98;4.88;;;819.30;1228.80;;;;;;5016749;28;20098;-73
2023/08/13 09:01:32;;;;;;;54.95;36.95;;;819.50;1254.40;;;;;;5021296;28;20062;-71
2023/08/13 09:03:58;;;;;;;8.60;4.32;;;819.60;1203.20;;;;;;5018903;28;20103;-70
2023/08/13 09:06:24;;;;;;;6.32;3.92;;;819.20;1177.60;;;;;;5020103;28;20026;-76
2023/08/13 09:08:49;;;;;;;9.32;5.85;;;819.30;1152.00;;;;;;5016196;28;20038;-74
2023/08/13 09:11:18;;;;;;;38.50;27.88;;;819.50;1228.80;;;;;;5016708;28;20021;-74
2023/08/13 09:13:48;;;;;;;17.67;14.00;;;819.80;1203.20;;;;;;5027974;28;20022;-71
2023/08/13 09:16:14;;;;;;;8.77;4.80;;;819.80;1126.40;;;;;;5023117;28;20116;-70
2023/08/13 09:18:40;;;;;;;11.40;7.22;;;820.00;1152.00;;;;;;5029489;28;20553;-73
2023/08/13 09:21:05;;;;;;;6.93;3.25;;;844.80;1152.00;;;;;;5026908;28;20032;-73
2023/08/13 09:23:31;;;;;;;208.82;125.25;;;844.90;1152.00;;;;;;5025853;28;20136;-72
2023/08/13 09:26:00;;;;;;;175.50;106.63;;;844.90;1126.40;;;;;;5023107;28;20510;-72
2023/08/13 09:28:26;;;;;;;1403.47;836.10;;;845.10;1152.00;;;;;;5024031;28;20030;-71
2023/08/13 09:30:51;;;;;;;62.60;48.30;;;845.10;1126.40;;;;;;5025164;28;20032;-73
2023/08/13 09:33:18;;;;;;;8.13;6.18;;;845.10;1100.80;;;;;;5026678;28;20069;-74
2023/08/13 09:35:44;;;;;;;9.60;3.53;;;845.20;1100.80;;;;;;5028460;28;20033;-71
2023/08/13 09:38:10;;;;;;;7.38;3.50;;;845.20;1100.80;;;;;;5022667;28;20092;-72
2023/08/13 09:40:36;;;;;;;5.72;2.83;;;845.30;1126.40;;;;;;5030526;28;20065;-73
2023/08/13 09:43:08;;;;;;;5.30;2.70;;;845.20;1075.20;;;;;;5024253;28;20079;-72
2023/08/13 09:45:35;;;;;;;8.10;3.40;;;845.10;1049.60;;;;;;5025973;28;20431;-74
2023/08/13 09:48:04;;;;;;;12.38;7.07;;;844.90;1100.80;;;;;;5025113;28;20072;-73
2023/08/13 09:50:34;;;;;;;5.05;3.42;;;845.20;1049.60;;;;;;5026283;28;20033;-75
2023/08/13 09:53:03;;;;;;;8.73;3.20;;;845.40;1075.20;;;;;;5023315;28;20030;-71
2023/08/13 09:55:32;;;;;;;7.88;3.60;;;845.40;1126.40;;;;;;5027082;28;20021;-74
2023/08/13 09:58:04;;;;;;;4.53;2.95;;;845.60;1100.80;;;;;;5025356;28;20018;-72
2023/08/13 10:00:31;;;;;;;6.13;3.15;;;845.40;1049.60;;;;;;5020964;28;20033;-74
2023/08/13 10:02:58;;;;;;;5.70;2.72;;;845.30;1100.80;;;;;;5027257;28;20040;-73
2023/08/13 10:05:24;;;;;;;198.55;129.13;;;844.90;1126.40;;;;;;5021943;28;20053;-72
2023/08/13 10:07:50;;;;;;;6.20;3.85;;;845.00;1075.20;;;;;;5025458;28;20034;-71
2023/08/13 10:10:17;;;;;;;4.85;2.75;;;845.40;1152.00;;;;;;5021501;28;20030;-73
2023/08/13 10:12:43;;;;;;;6.97;2.80;;;845.40;1024.00;;;;;;5022200;28;20033;-70
2023/08/13 10:15:09;;;;;;;8.23;4.80;;;845.60;1075.20;;;;;;5026764;28;20541;-71
2023/08/13 10:17:35;;;;;;;5.53;3.05;;;845.70;1075.20;;;;;;5018061;28;20044;-70
2023/08/13 10:20:01;;;;;;;7.90;2.58;;;845.40;1049.60;;;;;;5015952;28;20022;-72
2023/08/13 10:22:38;;;;;;;17.70;13.32;;;845.70;1024.00;;;;;;5025986;28;20033;-71
2023/08/13 10:25:10;;;;;;;6.28;3.15;;;870.50;1049.60;;;;;;5024591;28;20491;-71
2023/08/13 10:27:43;;;;;;;7.18;3.17;;;870.70;1024.00;;;;;;5021808;28;20034;-70
2023/08/13 10:30:11;;;;;;;4.88;2.72;;;870.70;1024.00;;;;;;5027322;28;20021;-70
2023/08/13 10:32:46;;;;;;;5.13;3.65;;;870.70;1049.60;;;;;;5022141;28;20042;-70
2023/08/13 10:35:45;;;;;;;46.95;31.80;;;870.80;1049.60;;;;;;5025682;28;20033;-71
2023/08/13 10:38:10;;;;;;;7.28;4.65;;;870.90;1024.00;;;;;;5004427;28;20128;-71
2023/08/13 10:40:55;;;;;;;6.53;2.60;;;871.00;1049.60;;;;;;5005111;28;20448;-69
2023/08/13 10:43:21;;;;;;;7.30;3.47;;;870.90;998.40;;;;;;5006981;28;20062;-70
2023/08/13 10:45:48;;;;;;;10.77;4.93;;;870.60;1024.00;;;;;;5010696;28;20079;-75
2023/08/13 10:48:28;;;;;;;6.85;2.80;;;870.80;972.80;;;;;;5000679;28;20085;-70
2023/08/13 10:50:58;;;;;;;3.97;2.50;;;870.90;1049.60;;;;;;5008248;28;20030;-70
2023/08/13 10:53:26;;;;;;;23.85;10.85;;;871.00;998.40;;;;;;5007277;28;20498;-70
2023/08/13 10:55:52;;;;;;;18.42;10.82;;;870.80;947.20;;;;;;5002721;28;20097;-72
2023/08/13 10:58:27;;;;;;;36.35;26.73;;;870.80;947.20;;;;;;4999482;28;20034;-71
2023/08/13 11:01:09;;;;;;;6.18;4.30;;;870.80;998.40;;;;;;5007177;28;20489;-70
2023/08/13 11:03:46;;;;;;;5.32;2.80;;;871.10;1024.00;;;;;;5005726;28;20076;-73
2023/08/13 11:06:13;;;;;;;4.20;2.90;;;871.10;972.80;;;;;;4999400;28;20460;-72
2023/08/13 11:08:40;;;;;;;6.82;3.00;;;871.10;972.80;;;;;;4999767;28;20543;-69
2023/08/13 11:11:06;;;;;;;4.20;3.03;;;871.10;972.80;;;;;;4999811;28;20061;-69
2023/08/13 11:13:33;;;;;;;5.13;2.88;;;896.00;1024.00;;;;;;5018223;28;20052;-69
2023/08/13 11:15:59;;;;;;;8.35;2.97;;;896.30;998.40;;;;;;5020938;28;20033;-74
2023/08/13 11:18:25;;;;;;;5.85;2.83;;;871.30;972.80;;;;;;5020600;28;20084;-70
2023/08/13 11:20:51;;;;;;;8.25;3.70;;;870.90;972.80;;;;;;5019779;28;20391;-71
2023/08/13 11:23:20;;;;;;;10.30;6.40;;;871.30;947.20;;;;;;5031755;28;20025;-77
2023/08/13 11:25:48;;;;;;;6.93;4.53;;;896.10;921.60;;;;;;5025453;28;20025;-71
2023/08/13 11:28:25;;;;;;;5.95;2.80;;;896.50;921.60;;;;;;5018089;28;20021;-72
2023/08/13 11:30:54;;;;;;;4.18;2.97;;;896.30;998.40;;;;;;5022578;28;20026;-72
2023/08/13 11:33:20;;;;;;;8.65;3.55;;;871.30;972.80;;;;;;5027105;28;20045;-75
2023/08/13 11:35:47;;;;;;;5.13;2.92;;;896.10;972.80;;;;;;5018819;28;20510;-73
2023/08/13 11:38:14;;;;;;;5.20;3.72;;;871.10;998.40;;;;;;5029582;28;20037;-71
2023/08/13 11:40:40;;;;;;;8.10;2.83;;;871.20;1024.00;;;;;;5023101;28;20394;-70
2023/08/13 11:43:10;;;;;;;5.28;3.03;;;871.10;998.40;;;;;;5019142;28;20021;-70
2023/08/13 11:45:36;;;;;;;4.32;3.25;;;871.10;998.40;;;;;;5027651;28;20549;-76
2023/08/13 11:48:11;;;;;;;5.95;3.25;;;896.10;947.20;;;;;;5022082;28;20136;-73
2023/08/13 11:50:37;;;;;;;7.50;3.95;;;896.40;921.60;;;;;;5017878;28;20062;-73
2023/08/13 11:53:12;;;;;;;8.65;3.58;;;896.50;921.60;;;;;;5014779;28;20022;-70
2023/08/13 11:55:48;;;;;;;5.18;3.78;;;896.80;947.20;;;;;;5023823;28;20036;-70
2023/08/13 11:58:18;;;;;;;8.70;2.80;;;896.80;921.60;;;;;;5022045;28;20025;-72
2023/08/13 12:00:47;;;;;;;4.55;2.70;;;896.50;947.20;;;;;;5024913;28;20033;-71
2023/08/13 12:03:14;;;;;;;5.53;3.22;;;871.30;947.20;;;;;;5024649;28;20117;-70
2023/08/13 12:05:41;;;;;;;5.15;2.80;;;896.40;972.80;;;;;;5028300;28;20037;-71
2023/08/13 12:08:09;;;;;;;9.57;4.57;;;896.20;921.60;;;;;;5020309;28;20124;-70
2023/08/13 12:10:36;;;;;;;6.53;3.03;;;896.30;947.20;;;;;;5024795;28;20029;-71